createdAt,value
2018-05-26T04:00:36.099Z,91.1
2018-05-26T04:00:56.893Z,90.5
2018-05-26T04:01:17.555Z,90.8
2018-05-26T04:01:38.365Z,90
2018-05-26T04:01:59.119Z,89.8
2018-05-26T04:02:19.919Z,89.9
2018-05-26T04:02:40.627Z,90
2018-05-26T04:14:01.918Z,90.3
2018-05-26T04:14:22.850Z,89.8
2018-05-26T04:14:43.424Z,89.6
2018-05-26T04:15:04.255Z,90.3
2018-05-26T04:15:25.079Z,89.6
2018-05-26T04:15:45.849Z,89.6
2018-05-26T04:16:06.713Z,89.5
2018-05-26T04:23:07.857Z,91.5
2018-05-26T04:23:29.357Z,91.4
2018-05-26T04:26:05.878Z,93
2018-05-26T04:26:26.973Z,92.9
2018-05-26T04:28:39.669Z,91.1
2018-05-26T04:29:01.853Z,91.4
2018-05-26T04:31:39.471Z,91.3
2018-05-26T04:32:00.717Z,91.1
2018-05-26T04:32:21.416Z,91.5
2018-05-26T04:33:59.364Z,91
2018-05-26T04:37:13.400Z,91.9
2018-05-26T04:38:48.930Z,91.9
2018-05-26T04:40:28.172Z,91.8
2018-05-26T04:41:56.425Z,91.5
2018-05-26T04:43:27.696Z,91.2
2018-05-26T04:45:07.834Z,91.1
2018-05-26T04:45:28.979Z,90.4
2018-05-26T04:47:42.201Z,91.1
2018-05-26T04:49:21.381Z,91.1
2018-05-26T04:50:26.694Z,91
2018-05-26T04:52:07.782Z,90.4
2018-05-26T04:54:02.038Z,91.2
2018-05-26T04:55:11.051Z,90.9
2018-05-26T04:55:33.520Z,91.2
2018-05-26T04:57:11.156Z,90.8
2018-05-26T05:00:56.111Z,90.3
2018-05-26T05:04:04.242Z,90.9
2018-05-26T05:05:19.068Z,90
2018-05-26T05:08:24.577Z,89.7
2018-05-26T05:08:45.875Z,89.8
2018-05-26T05:10:24.906Z,89.5
2018-05-26T05:12:36.426Z,89.7
2018-05-26T05:14:27.964Z,89.6
2018-05-26T05:14:49.578Z,89.6
2018-05-26T05:15:56.561Z,89
2018-05-26T05:16:58.630Z,89.9
2018-05-26T05:19:57.316Z,89.4
2018-05-26T05:22:55.882Z,89.8
2018-05-26T05:23:57.748Z,89.7
2018-05-26T05:24:54.850Z,89.6
2018-05-26T05:27:31.071Z,89.7
2018-05-26T05:27:54.993Z,89.5
2018-05-26T05:28:15.807Z,89
2018-05-26T05:28:36.648Z,89.2
2018-05-26T05:28:57.549Z,88.8
2018-05-26T05:30:22.425Z,88.9
2018-05-26T05:30:44.669Z,89
2018-05-26T05:31:43.057Z,88.9
2018-05-26T05:32:51.865Z,88.9
2018-05-26T05:33:14.274Z,89
2018-05-26T05:34:23.727Z,89.3
2018-05-26T05:34:46.393Z,88.7
2018-05-26T05:35:46.137Z,89.1
2018-05-26T05:36:08.047Z,88.5
2018-05-26T05:37:11.480Z,88.2
2018-05-26T05:37:33.340Z,87.8
2018-05-26T05:37:54.513Z,87.9
2018-05-26T05:38:15.412Z,88
2018-05-26T05:38:36.285Z,87.6
2018-05-26T05:38:57.203Z,87.9
2018-05-26T05:39:34.429Z,88.4
2018-05-26T05:39:56.197Z,87.7
2018-05-26T05:40:39.386Z,88.2
2018-05-26T05:41:00.768Z,88
2018-05-26T05:41:43.845Z,88.6
2018-05-26T05:42:05.116Z,89
2018-05-26T05:42:48.660Z,88.9
2018-05-26T05:43:10.076Z,89
2018-05-26T05:43:30.857Z,89.1
2018-05-26T05:43:51.559Z,88.9
2018-05-26T05:44:12.647Z,88.8
2018-05-26T05:44:34.329Z,89.2
2018-05-26T05:44:55.052Z,88.8
2018-05-26T05:45:16.008Z,88.7
2018-05-26T05:45:36.765Z,88.6
2018-05-26T05:45:58.279Z,88.8
2018-05-26T05:46:19.318Z,88.8
2018-05-26T05:46:40.378Z,88.5
2018-05-26T05:47:01.239Z,88.6
2018-05-26T05:47:21.924Z,89.3
2018-05-26T05:47:42.614Z,88.6
2018-05-26T05:48:03.350Z,89.1
2018-05-26T05:48:24.127Z,89.3
2018-05-26T05:48:44.943Z,89.6
2018-05-26T05:49:06.301Z,88.9
2018-05-26T05:49:27.023Z,89
2018-05-26T05:49:47.674Z,89.1
2018-05-26T05:50:08.482Z,88.5
2018-05-26T05:50:29.532Z,89.2
2018-05-26T05:50:50.326Z,88.8
2018-05-26T05:51:11.263Z,88
2018-05-26T05:51:32.396Z,87.7
2018-05-26T05:51:53.203Z,87.6
2018-05-26T05:52:14.216Z,87.8
2018-05-26T05:52:34.892Z,88.5
2018-05-26T05:52:55.584Z,88.5
2018-05-26T05:53:16.400Z,88.4
2018-05-26T05:53:37.546Z,88.1
2018-05-26T05:53:58.384Z,87.9
2018-05-26T05:54:19.532Z,88.1
2018-05-26T05:54:40.526Z,87.5
2018-05-26T05:55:01.756Z,87.6
2018-05-26T05:55:22.436Z,87.8
2018-05-26T05:55:43.226Z,88
2018-05-26T05:56:04.026Z,87.9
2018-05-26T05:56:24.764Z,88.3
2018-05-26T05:56:45.755Z,88.5
2018-05-26T05:57:07.136Z,88.5
2018-05-26T05:57:28.039Z,88.2
2018-05-26T05:57:48.852Z,88.3
2018-05-26T05:58:09.663Z,88.7
2018-05-26T05:58:30.617Z,89.2
2018-05-26T05:58:51.401Z,89.2
2018-05-26T05:59:12.319Z,88.6
2018-05-26T05:59:33.150Z,87.2
2018-05-26T05:59:54.006Z,86.7
2018-05-26T06:00:14.971Z,86.5
2018-05-26T06:01:16.264Z,86.9
2018-05-26T06:01:37.089Z,87.3
2018-05-26T06:01:57.981Z,87.3
2018-05-26T06:02:18.992Z,87.1
2018-05-26T06:02:39.804Z,86.7
2018-05-26T06:03:00.703Z,86.7
2018-05-26T06:03:21.696Z,86.9
2018-05-26T06:03:42.756Z,87.1
2018-05-26T06:04:03.978Z,87.4
2018-05-26T06:04:25.156Z,87.1
2018-05-26T06:04:46.787Z,87.3
2018-05-26T06:05:08.815Z,87.1
2018-05-26T06:05:29.903Z,87.5
2018-05-26T06:05:51.044Z,87.7
2018-05-26T06:06:11.956Z,87.7
2018-05-26T06:06:32.811Z,87.4
2018-05-26T06:06:53.553Z,87.7
2018-05-26T06:07:14.530Z,87.5
2018-05-26T06:07:35.508Z,87.2
2018-05-26T06:07:56.740Z,87
2018-05-26T06:08:18.611Z,87
2018-05-26T06:08:39.617Z,86.9
2018-05-26T06:09:00.732Z,87.3
2018-05-26T06:09:21.984Z,86.8
2018-05-26T06:09:42.888Z,87.3
2018-05-26T06:10:05.533Z,87.4
2018-05-26T06:10:28.802Z,87
2018-05-26T06:10:50.505Z,86.5
2018-05-26T06:11:11.657Z,86.6
2018-05-26T06:11:32.644Z,86.3
2018-05-26T06:11:53.942Z,86.2
2018-05-26T06:12:16.499Z,86.5
2018-05-26T06:12:37.665Z,87.6
2018-05-26T06:12:59.905Z,87.8
2018-05-26T06:13:21.258Z,87.7
2018-05-26T06:13:42.460Z,87.4
2018-05-26T06:14:03.936Z,87.3
2018-05-26T06:14:25.088Z,86.8
2018-05-26T06:14:46.180Z,86.1
2018-05-26T06:15:07.727Z,85.9
2018-05-26T06:15:28.920Z,85.8
2018-05-26T06:15:51.012Z,85.9
2018-05-26T06:16:12.352Z,85.6
2018-05-26T06:16:33.390Z,85.3
2018-05-26T06:16:54.602Z,85.4
2018-05-26T06:17:15.551Z,86.1
2018-05-26T06:17:37.011Z,86
2018-05-26T06:17:59.257Z,85.7
2018-05-26T06:18:20.684Z,86
2018-05-26T06:18:42.017Z,86.2
2018-05-26T06:19:03.207Z,85.9
2018-05-26T06:19:24.440Z,86
2018-05-26T06:19:45.922Z,86.3
2018-05-26T06:20:06.785Z,85.8
2018-05-26T06:20:27.866Z,85.9
2018-05-26T06:20:48.830Z,86
2018-05-26T06:21:10.097Z,85.6
2018-05-26T06:21:30.951Z,85.4
2018-05-26T06:21:52.177Z,85.7
2018-05-26T06:22:14.583Z,86
2018-05-26T06:22:35.925Z,85.8
2018-05-26T06:22:57.102Z,85.7
2018-05-26T06:23:18.219Z,85.5
2018-05-26T06:23:39.320Z,85.7
2018-05-26T06:24:00.398Z,85.4
2018-05-26T06:24:21.545Z,85.3
2018-05-26T06:24:42.861Z,85.9
2018-05-26T06:25:03.842Z,85.4
2018-05-26T06:25:25.174Z,85.6
2018-05-26T06:25:47.096Z,85.2
2018-05-26T06:26:09.196Z,85.5
2018-05-26T06:26:30.676Z,85.8
2018-05-26T06:26:51.469Z,85.3
2018-05-26T06:27:12.682Z,85.3
2018-05-26T06:27:33.614Z,85
2018-05-26T06:27:54.409Z,85.3
2018-05-26T06:28:17.369Z,85.2
2018-05-26T06:28:38.249Z,85.3
2018-05-26T06:28:59.400Z,84.5
2018-05-26T06:29:21.597Z,84.5
2018-05-26T06:29:42.404Z,84.8
2018-05-26T06:30:03.333Z,85
2018-05-26T06:30:24.380Z,84.9
2018-05-26T06:30:45.801Z,84.2
2018-05-26T06:31:06.602Z,83.9
2018-05-26T06:31:27.710Z,85.1
2018-05-26T06:31:49.041Z,85.5
2018-05-26T06:32:10.347Z,85.4
2018-05-26T06:32:32.081Z,85.6
2018-05-26T06:32:53.646Z,85.5
2018-05-26T06:33:14.872Z,84.9
2018-05-26T06:33:35.913Z,84.9
2018-05-26T06:33:58.047Z,84.6
2018-05-26T06:34:19.192Z,84.5
2018-05-26T06:34:39.961Z,84.3
2018-05-26T06:35:01.061Z,84.6
2018-05-26T06:35:22.204Z,84.6
2018-05-26T06:35:43.287Z,84.1
2018-05-26T06:36:04.275Z,84.6
2018-05-26T06:36:25.156Z,84.3
2018-05-26T06:36:46.360Z,83.5
2018-05-26T06:37:07.713Z,83.2
2018-05-26T06:37:28.960Z,83.5
2018-05-26T06:37:50.367Z,83.2
2018-05-26T06:38:11.841Z,83.1
2018-05-26T06:38:32.989Z,83.5
2018-05-26T06:38:54.299Z,83.6
2018-05-26T06:39:15.666Z,83.1
2018-05-26T06:39:37.040Z,83.3
2018-05-26T06:39:57.817Z,82.8
2018-05-26T06:40:18.993Z,82.8
2018-05-26T06:40:41.565Z,83
2018-05-26T06:41:03.164Z,83.3
2018-05-26T06:41:24.305Z,82.9
2018-05-26T06:41:45.171Z,81.1
2018-05-26T06:42:25.578Z,81.9
2018-05-26T06:42:49.933Z,82.2
2018-05-26T06:43:11.149Z,82.3
2018-05-26T06:43:32.420Z,82.3
2018-05-26T06:43:53.153Z,83
2018-05-26T06:44:14.216Z,83.3
2018-05-26T06:44:35.160Z,83.2
2018-05-26T06:44:55.932Z,83.2
2018-05-26T06:45:16.804Z,83.3
2018-05-26T06:45:42.199Z,84
2018-05-26T06:46:02.883Z,84.2
2018-05-26T06:46:23.610Z,83.4
2018-05-26T06:46:44.619Z,83.3
2018-05-26T06:47:05.656Z,83.2
2018-05-26T06:47:26.667Z,83.2
2018-05-26T06:47:47.716Z,83.3
2018-05-26T06:48:09.084Z,83.6
2018-05-26T06:48:30.099Z,83.8
2018-05-26T06:48:51.259Z,84.5
2018-05-26T06:49:11.819Z,84.2
2018-05-26T06:49:32.831Z,84.3
2018-05-26T06:49:53.794Z,83.1
2018-05-26T06:50:14.577Z,82.7
2018-05-26T06:50:35.422Z,83.4
2018-05-26T06:50:56.243Z,83.5
2018-05-26T06:51:17.129Z,83.5
2018-05-26T06:51:38.083Z,84
2018-05-26T06:51:59.117Z,83.1
2018-05-26T06:52:19.831Z,83.1
2018-05-26T06:52:40.527Z,82.8
2018-05-26T06:53:01.102Z,81.1
2018-05-26T06:53:21.588Z,81.2
2018-05-26T06:53:42.562Z,80.5
2018-05-26T06:54:03.394Z,80.4
2018-05-26T06:54:24.253Z,80.7
2018-05-26T06:54:45.105Z,80.8
2018-05-26T06:55:05.839Z,81.3
2018-05-26T06:55:26.641Z,81.3
2018-05-26T06:55:47.594Z,80.8
2018-05-26T06:56:08.663Z,80.8
2018-05-26T06:56:29.420Z,80.7
2018-05-26T06:56:50.440Z,81.3
2018-05-26T06:57:11.167Z,81.2
2018-05-26T06:57:31.667Z,81.3
2018-05-26T06:57:52.784Z,81.3
2018-05-26T06:58:13.795Z,80.7
2018-05-26T06:58:34.812Z,79.9
2018-05-26T06:58:55.515Z,79.4
2018-05-26T06:59:16.485Z,79.7
2018-05-26T06:59:37.810Z,80.7
2018-05-26T06:59:59.050Z,80.5
2018-05-26T07:00:20.072Z,79.7
2018-05-26T07:00:41.204Z,80
2018-05-26T07:01:03.290Z,80.8
2018-05-26T07:01:24.360Z,81.4
2018-05-26T07:01:45.544Z,80.6
2018-05-26T07:02:06.690Z,80.5
2018-05-26T07:02:27.323Z,80.1
2018-05-26T07:02:48.441Z,78.9
2018-05-26T07:03:09.324Z,79.4
2018-05-26T07:03:30.236Z,79.6
2018-05-26T07:03:51.497Z,79
2018-05-26T07:04:12.497Z,78.5
2018-05-26T07:04:34.421Z,79.2
2018-05-26T07:04:55.911Z,79.4
2018-05-26T07:05:17.985Z,78.1
2018-05-26T07:05:39.119Z,78
2018-05-26T07:05:59.997Z,78.7
2018-05-26T07:06:20.915Z,79
2018-05-26T07:06:41.897Z,78.5
2018-05-26T07:07:03.395Z,78.8
2018-05-26T07:07:24.797Z,79.4
2018-05-26T07:07:46.281Z,79.2
2018-05-26T07:08:07.779Z,79.9
2018-05-26T07:08:29.329Z,80.8
2018-05-26T07:08:50.653Z,80.1
2018-05-26T07:09:12.120Z,79.7
2018-05-26T07:09:33.665Z,78.9
2018-05-26T07:09:55.041Z,77.9
2018-05-26T07:10:16.639Z,77.7
2018-05-26T07:10:38.087Z,78
2018-05-26T07:10:59.030Z,78.1
2018-05-26T07:11:20.087Z,77.9
2018-05-26T07:11:41.154Z,78.8
2018-05-26T07:12:02.113Z,78.8
2018-05-26T07:12:23.071Z,77.8
2018-05-26T07:12:44.083Z,77.1
2018-05-26T07:13:05.417Z,77.2
2018-05-26T07:13:27.394Z,77.8
2018-05-26T07:13:48.600Z,78.1
2018-05-26T07:14:09.884Z,79.2
2018-05-26T07:14:31.077Z,78.8
2018-05-26T07:14:52.565Z,79.1
2018-05-26T07:15:15.418Z,78.8
2018-05-26T07:15:36.452Z,78.7
2018-05-26T07:15:57.521Z,79.6
2018-05-26T07:16:18.225Z,80.2
2018-05-26T07:16:38.871Z,78.9
2018-05-26T07:17:00.639Z,78.8
2018-05-26T07:17:21.782Z,79
2018-05-26T07:18:02.133Z,78.1
2018-05-26T07:18:22.823Z,78.5
2018-05-26T07:18:44.081Z,78.1
2018-05-26T07:19:05.307Z,77.9
2018-05-26T07:19:26.817Z,77.4
2018-05-26T07:19:47.951Z,77.6
2018-05-26T07:20:09.034Z,77.6
2018-05-26T07:20:30.073Z,77.9
2018-05-26T07:20:51.562Z,77.5
2018-05-26T07:21:14.003Z,77.4
2018-05-26T07:21:35.223Z,77.3
2018-05-26T07:21:56.032Z,77.9
2018-05-26T07:22:16.836Z,77.8
2018-05-26T07:22:37.434Z,77
2018-05-26T07:22:58.579Z,76.6
2018-05-26T07:23:19.835Z,77.1
2018-05-26T07:23:40.895Z,77.8
2018-05-26T07:24:01.972Z,77
2018-05-26T07:24:23.582Z,76.7
2018-05-26T07:24:45.761Z,76.5
2018-05-26T07:25:07.632Z,77
2018-05-26T07:25:28.700Z,77.3
2018-05-26T07:25:50.082Z,77.5
2018-05-26T07:26:11.343Z,77
2018-05-26T07:26:32.409Z,76.1
2018-05-26T07:26:54.303Z,76.6
2018-05-26T07:27:15.465Z,77.8
2018-05-26T07:27:37.125Z,78.6
2018-05-26T07:27:58.189Z,78.7
2018-05-26T07:28:19.049Z,78.8
2018-05-26T07:28:39.773Z,78.6
2018-05-26T07:29:01.251Z,77.5
2018-05-26T07:29:23.244Z,77.4
2018-05-26T07:29:47.057Z,78
2018-05-26T07:30:07.870Z,76.8
2018-05-26T07:30:28.727Z,76.8
2018-05-26T07:30:49.550Z,76.8
2018-05-26T07:31:10.920Z,76.1
2018-05-26T07:31:31.950Z,76.9
2018-05-26T07:31:52.938Z,78
2018-05-26T07:32:14.744Z,77.4
2018-05-26T07:32:36.830Z,75.9
2018-05-26T07:32:57.748Z,75.1
2018-05-26T07:33:18.824Z,75.3
2018-05-26T07:33:39.591Z,76
2018-05-26T07:34:01.326Z,77.3
2018-05-26T07:34:23.279Z,77.3
2018-05-26T07:34:44.077Z,76.8
2018-05-26T07:35:05.136Z,76
2018-05-26T07:35:26.462Z,76
2018-05-26T07:35:47.441Z,76.4
2018-05-26T07:36:08.394Z,76.5
2018-05-26T07:36:29.379Z,76.3
2018-05-26T07:36:50.337Z,75.6
2018-05-26T07:37:11.302Z,75.2
2018-05-26T07:37:32.165Z,75.5
2018-05-26T07:37:53.330Z,75.5
2018-05-26T07:38:14.303Z,75.6
2018-05-26T07:38:35.174Z,74.8
2018-05-26T07:38:55.929Z,75.1
2018-05-26T07:39:17.023Z,75
2018-05-26T07:39:38.232Z,76.9
2018-05-26T07:39:59.361Z,76.7
2018-05-26T07:40:20.316Z,76.7
2018-05-26T07:40:41.464Z,76.5
2018-05-26T07:41:02.513Z,74.5
2018-05-26T07:41:23.358Z,72.6
2018-05-26T07:41:44.031Z,73.2
2018-05-26T07:42:05.280Z,73.3
2018-05-26T07:42:26.333Z,73.5
2018-05-26T07:42:47.402Z,74.1
2018-05-26T07:43:09.250Z,74.2
2018-05-26T07:43:30.265Z,74
2018-05-26T07:43:51.120Z,73.8
2018-05-26T07:44:11.679Z,73.1
2018-05-26T07:44:32.403Z,73.1
2018-05-26T07:44:56.028Z,73.5
2018-05-26T07:45:17.742Z,73.5
2018-05-26T07:45:38.638Z,73.9
2018-05-26T07:45:59.564Z,72.9
2018-05-26T07:46:20.754Z,73.2
2018-05-26T07:46:41.531Z,73.2
2018-05-26T07:47:02.362Z,73.1
2018-05-26T07:47:23.160Z,73.5
2018-05-26T07:47:43.972Z,73.5
2018-05-26T07:48:04.971Z,74.5
2018-05-26T07:48:25.984Z,74.2
2018-05-26T07:48:46.996Z,74
2018-05-26T07:49:08.571Z,73
2018-05-26T07:49:29.461Z,72.9
2018-05-26T07:49:50.289Z,73.5
2018-05-26T07:50:10.892Z,72.4
2018-05-26T07:50:31.619Z,71.5
2018-05-26T07:50:52.362Z,71.8
2018-05-26T07:51:13.133Z,72.5
2018-05-26T07:51:34.095Z,73
2018-05-26T07:51:54.860Z,72.4
2018-05-26T07:52:15.467Z,72.3
2018-05-26T07:52:36.143Z,72.9
2018-05-26T07:52:56.848Z,71.7
2018-05-26T07:53:17.890Z,71.6
2018-05-26T07:53:39.095Z,71.2
2018-05-26T07:54:01.671Z,71.4
2018-05-26T07:54:22.311Z,71.6
2018-05-26T07:54:42.895Z,71.4
2018-05-26T07:55:03.560Z,71.4
2018-05-26T07:55:24.318Z,71.2
2018-05-26T07:55:45.040Z,69.9
2018-05-26T07:56:06.420Z,69.8
2018-05-26T07:56:27.336Z,70.7
2018-05-26T07:56:47.879Z,71.1
2018-05-26T07:57:08.639Z,71.2
2018-05-26T07:57:29.231Z,70.9
2018-05-26T07:57:50.347Z,70.7
2018-05-26T07:58:10.954Z,70.8
2018-05-26T07:58:31.834Z,70.3
2018-05-26T07:58:52.364Z,70.3
2018-05-26T07:59:13.263Z,70.1
2018-05-26T07:59:33.852Z,70
2018-05-26T07:59:54.799Z,69.9
2018-05-26T08:00:15.506Z,70.4
2018-05-26T08:00:36.098Z,70.3
2018-05-26T08:00:56.914Z,69.2
2018-05-26T08:01:17.728Z,69.5
2018-05-26T08:01:38.484Z,70.5
2018-05-26T08:01:59.423Z,70.2
2018-05-26T08:02:20.235Z,69.2
2018-05-26T08:02:41.032Z,69.2
2018-05-26T08:03:01.832Z,69
2018-05-26T08:03:22.757Z,69.1
2018-05-26T08:03:43.532Z,69.2
2018-05-26T08:04:04.457Z,68.7
2018-05-26T08:04:25.234Z,68.7
2018-05-26T08:04:45.966Z,68.3
2018-05-26T08:05:06.851Z,68.1
2018-05-26T08:05:27.497Z,69.4
2018-05-26T08:05:48.511Z,69.6
2018-05-26T08:06:09.226Z,68.9
2018-05-26T08:06:31.540Z,68.9
2018-05-26T08:06:52.458Z,70.1
2018-05-26T08:07:13.119Z,70.8
2018-05-26T08:07:34.559Z,71.5
2018-05-26T08:07:55.276Z,71.2
2018-05-26T08:08:16.154Z,70.7
2018-05-26T08:08:36.859Z,71.1
2018-05-26T08:08:57.618Z,71.8
2018-05-26T08:09:18.447Z,71.5
2018-05-26T08:09:40.452Z,70.8
2018-05-26T08:10:01.054Z,69.1
2018-05-26T08:10:21.932Z,67.7
2018-05-26T08:10:42.764Z,68.2
2018-05-26T08:11:03.529Z,68.2
2018-05-26T08:11:24.204Z,68
2018-05-26T08:11:45.459Z,66.8
2018-05-26T08:12:07.014Z,66.8
2018-05-26T08:12:27.652Z,66.8
2018-05-26T08:12:48.459Z,66.8
2018-05-26T08:13:09.297Z,67.3
2018-05-26T08:13:29.918Z,67.1
2018-05-26T08:13:50.807Z,68.1
2018-05-26T08:14:11.925Z,68.4
2018-05-26T08:14:32.754Z,69.2
2018-05-26T08:14:53.736Z,69.4
2018-05-26T08:15:14.569Z,69.5
2018-05-26T08:15:35.171Z,67.5
2018-05-26T08:15:55.712Z,65.9
2018-05-26T08:16:16.339Z,65
2018-05-26T08:16:37.402Z,64.7
2018-05-26T08:16:58.430Z,64.3
2018-05-26T08:17:19.458Z,64.4
2018-05-26T08:17:40.436Z,65.5
2018-05-26T08:18:01.792Z,65.7
2018-05-26T08:18:22.614Z,63.9
2018-05-26T08:18:43.557Z,64.1
2018-05-26T08:19:04.628Z,64.5
2018-05-26T08:19:25.374Z,64.5
2018-05-26T08:19:46.096Z,63.8
2018-05-26T08:20:06.748Z,62.6
2018-05-26T08:20:27.403Z,62.7
2018-05-26T08:20:47.966Z,62.2
2018-05-26T08:21:08.543Z,62.3
2018-05-26T08:21:29.220Z,62.2
2018-05-26T08:21:51.235Z,62.3
2018-05-26T08:22:12.361Z,62.1
2018-05-26T08:22:33.307Z,62
2018-05-26T08:22:54.265Z,62.3
2018-05-26T08:23:15.357Z,62.4
2018-05-26T08:23:37.083Z,62.4
2018-05-26T08:23:57.888Z,62.8
2018-05-26T08:24:18.766Z,62.3
2018-05-26T08:24:39.620Z,62.2
2018-05-26T08:25:00.606Z,62.1
2018-05-26T08:25:21.719Z,62.6
2018-05-26T08:25:42.728Z,62.4
2018-05-26T08:26:03.505Z,62.3
2018-05-26T08:26:24.681Z,62.3
2018-05-26T08:26:45.832Z,62.3
2018-05-26T08:27:06.537Z,61.8
2018-05-26T08:27:28.316Z,62.9
2018-05-26T08:27:48.863Z,63.1
2018-05-26T08:28:09.641Z,63.7
2018-05-26T08:28:30.693Z,63
2018-05-26T08:28:51.457Z,62.6
2018-05-26T08:29:12.143Z,62.1
2018-05-26T08:29:32.592Z,61.5
2018-05-26T08:29:53.526Z,61
2018-05-26T08:30:14.338Z,60.1
2018-05-26T08:30:35.135Z,59
2018-05-26T08:30:56.708Z,58.4
2018-05-26T08:31:17.743Z,57.2
2018-05-26T08:31:38.250Z,57.1
2018-05-26T08:31:59.039Z,57.2
2018-05-26T08:32:19.887Z,57.5
2018-05-26T08:32:40.733Z,57.5
2018-05-26T08:33:01.421Z,57.5
2018-05-26T08:33:22.173Z,58.2
2018-05-26T08:33:43.113Z,58.5
2018-05-26T08:34:04.121Z,59
2018-05-26T08:34:25.018Z,59.4
2018-05-26T08:34:45.779Z,59.2
2018-05-26T08:35:06.621Z,61.5
2018-05-26T08:35:27.938Z,60.8
2018-05-26T08:35:48.512Z,60.8
2018-05-26T08:36:09.287Z,60.8
2018-05-26T08:36:30.701Z,60.4
2018-05-26T08:36:51.487Z,60
2018-05-26T08:37:12.500Z,59.5
2018-05-26T08:37:33.672Z,59.3
2018-05-26T08:37:54.633Z,59.6
2018-05-26T08:38:15.563Z,60.1
2018-05-26T08:38:37.250Z,59.7
2018-05-26T08:38:57.969Z,60.3
2018-05-26T08:39:18.930Z,60.4
2018-05-26T08:39:39.626Z,60.3
2018-05-26T08:40:00.633Z,60.6
2018-05-26T08:40:21.536Z,60.9
2018-05-26T08:40:42.404Z,60.2
2018-05-26T08:41:03.565Z,60
2018-05-26T08:41:24.581Z,60
2018-05-26T08:41:45.503Z,60.3
2018-05-26T08:42:06.389Z,60.4
2018-05-26T08:42:27.177Z,61.2
2018-05-26T08:42:48.106Z,61.9
2018-05-26T08:43:08.863Z,62.8
2018-05-26T08:43:29.673Z,61
2018-05-26T08:43:50.779Z,59.7
2018-05-26T08:44:11.729Z,58.5
2018-05-26T08:44:32.511Z,58.4
2018-05-26T08:44:53.380Z,59.4
2018-05-26T08:45:14.571Z,59.1
2018-05-26T08:45:35.135Z,58.8
2018-05-26T08:45:55.832Z,59.1
2018-05-26T08:46:16.562Z,60.1
2018-05-26T08:46:37.296Z,60.2
2018-05-26T08:46:58.096Z,60.2
2018-05-26T08:47:18.854Z,59.6
2018-05-26T08:47:39.473Z,60.4
2018-05-26T08:48:00.113Z,59.7
2018-05-26T08:48:21.103Z,60.3
2018-05-26T08:48:41.799Z,59.9
2018-05-26T08:49:02.555Z,59.1
2018-05-26T08:49:23.280Z,59.7
2018-05-26T08:49:44.090Z,60.1
2018-05-26T08:50:05.009Z,59.7
2018-05-26T08:50:25.695Z,59.5
2018-05-26T08:50:46.436Z,58.6
2018-05-26T08:51:06.995Z,57.5
2018-05-26T08:51:27.766Z,57.9
2018-05-26T08:51:48.658Z,58.4
2018-05-26T08:52:09.630Z,59
2018-05-26T08:52:30.554Z,60
2018-05-26T08:52:51.029Z,59.8
2018-05-26T08:53:11.745Z,58.6
2018-05-26T08:53:32.406Z,57.4
2018-05-26T08:53:53.767Z,56.9
2018-05-26T08:54:14.493Z,56.7
2018-05-26T08:54:36.325Z,56.5
2018-05-26T08:54:57.095Z,57.1
2018-05-26T08:55:17.995Z,56.9
2018-05-26T08:55:38.714Z,57.5
2018-05-26T08:56:00.617Z,56.8
2018-05-26T08:56:21.319Z,56.9
2018-05-26T08:56:42.228Z,56.3
2018-05-26T08:57:03.204Z,57
2018-05-26T08:57:23.900Z,57.3
2018-05-26T08:57:44.734Z,57.1
2018-05-26T08:58:05.617Z,57.6
2018-05-26T08:58:26.520Z,57.4
2018-05-26T08:58:47.197Z,58.2
2018-05-26T08:59:07.838Z,59.1
2018-05-26T08:59:28.617Z,57.3
2018-05-26T08:59:49.375Z,56.4
2018-05-26T09:00:10.149Z,55.8
2018-05-26T09:00:30.963Z,55.8
2018-05-26T09:00:51.643Z,55.7
2018-05-26T09:01:12.303Z,56.3
2018-05-26T09:01:33.028Z,55.6
2018-05-26T09:01:53.698Z,56.3
2018-05-26T09:02:14.796Z,57.1
2018-05-26T09:02:35.614Z,57
2018-05-26T09:02:56.322Z,58.9
2018-05-26T09:03:17.270Z,57.9
2018-05-26T09:03:38.328Z,56.9
2018-05-26T09:03:59.173Z,56.3
2018-05-26T09:04:20.767Z,55.8
2018-05-26T09:04:43.772Z,55.3
2018-05-26T09:05:05.025Z,55.3
2018-05-26T09:05:25.896Z,55.9
2018-05-26T09:05:46.883Z,55.2
2018-05-26T09:06:07.445Z,54.4
2018-05-26T09:06:28.274Z,54.1
2018-05-26T09:06:49.232Z,54.3
2018-05-26T09:07:10.774Z,54.6
2018-05-26T09:07:31.658Z,54.7
2018-05-26T09:07:52.745Z,53.3
2018-05-26T09:08:13.474Z,53.5
2018-05-26T09:08:34.123Z,53.4
2018-05-26T09:08:54.626Z,52.9
2018-05-26T09:09:15.234Z,54.3
2018-05-26T09:09:36.411Z,56.1
2018-05-26T09:09:56.780Z,55.2
2018-05-26T09:10:17.790Z,54.9
2018-05-26T09:10:38.375Z,55.7
2018-05-26T09:10:59.406Z,55.7
2018-05-26T09:11:20.693Z,56.2
2018-05-26T09:11:44.026Z,56.3
2018-05-26T09:12:05.221Z,54.8
2018-05-26T09:12:25.995Z,54.8
2018-05-26T09:12:46.812Z,54.4
2018-05-26T09:13:07.394Z,55.1
2018-05-26T09:13:27.644Z,55.4
2018-05-26T09:13:48.169Z,54.7
2018-05-26T09:14:08.805Z,56.1
2018-05-26T09:14:29.429Z,57
2018-05-26T09:14:50.137Z,57
2018-05-26T09:15:11.133Z,56.3
2018-05-26T09:15:31.937Z,56.1
2018-05-26T09:15:52.593Z,54.8
2018-05-26T09:16:13.466Z,53.9
2018-05-26T09:16:34.002Z,53.2
2018-05-26T09:16:54.592Z,53
2018-05-26T09:17:15.425Z,52.9
2018-05-26T09:17:36.005Z,52.7
2018-05-26T09:17:56.991Z,52.7
2018-05-26T09:18:20.688Z,51.5
2018-05-26T09:18:42.114Z,52.9
2018-05-26T09:19:02.558Z,53.2
2018-05-26T09:19:23.410Z,55.4
2018-05-26T09:19:44.519Z,55
2018-05-26T09:20:04.967Z,53.4
2018-05-26T09:20:25.627Z,53.6
2018-05-26T09:20:46.270Z,53.3
2018-05-26T09:21:06.870Z,52.9
2018-05-26T09:21:27.587Z,54.1
2018-05-26T09:21:48.366Z,54.8
2018-05-26T09:22:09.048Z,54.4
2018-05-26T09:22:29.680Z,53.9
2018-05-26T09:22:50.224Z,53.8
2018-05-26T09:23:10.569Z,53.9
2018-05-26T09:23:31.097Z,54
2018-05-26T09:23:51.675Z,54.1
2018-05-26T09:24:12.041Z,51.5
2018-05-26T09:24:32.677Z,51.4
2018-05-26T09:24:53.066Z,51.9
2018-05-26T09:25:13.886Z,53.4
2018-05-26T09:25:34.632Z,52.9
2018-05-26T09:25:55.176Z,52.1
2018-05-26T09:26:16.348Z,52.8
2018-05-26T09:26:36.658Z,52.7
2018-05-26T09:26:57.090Z,53
2018-05-26T09:27:17.697Z,52.3
2018-05-26T09:27:38.011Z,51.6
2018-05-26T09:27:58.276Z,51
2018-05-26T09:28:18.967Z,50.9
2018-05-26T09:28:39.567Z,51.6
2018-05-26T09:29:00.109Z,50.8
2018-05-26T09:29:20.631Z,51.9
2018-05-26T09:29:41.005Z,51.6
2018-05-26T09:30:01.676Z,50.6
2018-05-26T09:30:22.393Z,50.7
2018-05-26T09:30:44.551Z,50.8
2018-05-26T09:31:05.091Z,49.9
2018-05-26T09:31:25.867Z,49.9
2018-05-26T09:31:46.460Z,50.5
2018-05-26T09:32:07.477Z,50.4
2018-05-26T09:32:27.947Z,50.8
2018-05-26T09:32:48.967Z,50.6
2018-05-26T09:33:09.802Z,51.1
2018-05-26T09:33:30.528Z,50.7
2018-05-26T09:33:51.338Z,51.2
2018-05-26T09:34:12.152Z,51.3
2018-05-26T09:34:32.546Z,50.2
2018-05-26T09:34:53.691Z,50.5
2018-05-26T09:35:14.421Z,51.2
2018-05-26T09:35:35.070Z,50.8
2018-05-26T09:35:56.225Z,50.4
2018-05-26T09:36:17.287Z,49.2
2018-05-26T09:36:38.181Z,48.7
2018-05-26T09:36:58.652Z,49.5
2018-05-26T09:37:19.143Z,49
2018-05-26T09:37:39.653Z,48.9
2018-05-26T09:38:01.111Z,48.5
2018-05-26T09:38:22.619Z,48.9
2018-05-26T09:38:43.520Z,49.5
2018-05-26T09:39:45.045Z,50.4
2018-05-26T09:40:05.863Z,49.9
2018-05-26T09:40:26.145Z,49.5
2018-05-26T09:40:46.962Z,48.8
2018-05-26T09:41:07.577Z,49.5
2018-05-26T09:41:29.077Z,49.6
2018-05-26T09:41:50.097Z,49.5
2018-05-26T09:42:10.691Z,49.7
2018-05-26T09:42:31.461Z,49.7
2018-05-26T09:42:53.105Z,50.5
2018-05-26T09:43:13.359Z,51.2
2018-05-26T09:43:34.068Z,50.8
2018-05-26T09:43:55.206Z,50.8
2018-05-26T09:44:17.118Z,51.2
2018-05-26T09:44:38.670Z,49.5
2018-05-26T09:44:59.809Z,50.1
2018-05-26T09:45:20.551Z,51
2018-05-26T09:45:41.247Z,52
2018-05-26T09:46:01.707Z,51.7
2018-05-26T09:46:21.972Z,51.7
2018-05-26T09:46:42.273Z,51.2
2018-05-26T09:47:02.591Z,51.1
2018-05-26T09:47:22.874Z,52.5
2018-05-26T09:47:43.470Z,52.3
2018-05-26T09:48:03.717Z,51.3
2018-05-26T09:48:24.150Z,52.5
2018-05-26T09:48:44.986Z,52.8
2018-05-26T09:49:05.920Z,52.5
2018-05-26T09:49:27.011Z,52.5
2018-05-26T09:49:48.364Z,52
2018-05-26T09:50:09.143Z,52
2018-05-26T09:50:29.364Z,52.1
2018-05-26T09:50:49.969Z,51.9
2018-05-26T09:51:10.173Z,51.2
2018-05-26T09:51:30.489Z,50.6
2018-05-26T09:51:50.706Z,51.7
2018-05-26T09:52:11.400Z,51.7
2018-05-26T09:52:32.003Z,51.7
2018-05-26T09:52:53.126Z,51.4
2018-05-26T09:53:13.805Z,50.8
2018-05-26T09:53:34.287Z,50.9
2018-05-26T09:53:54.581Z,50.8
2018-05-26T09:54:14.965Z,49.2
2018-05-26T09:54:35.362Z,49.4
2018-05-26T09:54:56.084Z,49.4
2018-05-26T09:55:16.799Z,49.6
2018-05-26T09:55:37.846Z,49.1
2018-05-26T09:55:58.595Z,48.7
2018-05-26T09:56:19.646Z,48.7
2018-05-26T09:56:40.597Z,49.2
2018-05-26T09:57:01.220Z,48.6
2018-05-26T09:57:21.628Z,47.9
2018-05-26T09:57:42.604Z,48.7
2018-05-26T09:58:03.714Z,49.4